Accueil
METAR-TAF:

METAR-TAF

Aéroports :

Aéroport de Southampton

Southampton, Angleterre

latitude: 50-54N, longitude: 001-24W, altitude: 9 m

Observation

Le bulletin a été fait il y a 18 minutes, à 18:50 UTC
Vent 7 kt de sud/sud-ouest
Température 20°C
Humidité 68%
Pression 1018 hPa
Visibilité 10 km ou plus
pas de nuages en-dessous de 1500 mètres et pas de cumulonimbus.

METAR: EGHI 151850Z 20007KT CAVOK 20/14 Q1018

Heure: 20:08 (19:08 UTC)

Prévision

Le bulletin a été fait il y a 2 heures et 11 minutes, à 16:57 UTC
Prévision valable du 15 à 18 UTC au 15 à 22 UTC
Vent 6 kt de sud
Visibilité 10 km ou plus
Quelques nuages à une hauteur de 4500 ft

TAF: EGHI 151657Z 1518/1522 19006KT 9999 FEW045

Observations et prévisions météorologiques de plus de 4000 aéroports (messages METAR et TAF).

Les stations disponibles sont représentées par des disques jaunes et rouges sur la carte.

Passer la souris dessus pour voir le nom de la station.

Cliquer dessus pour voir les observations et prévisions météorologiques.

Pour changer de carte: cliquez sur les boutons verts avec une croix noire pour zoomer, sur le bouton vert avec un tiret pour effectuer un zoom arrière, ou sur les flèches vertes pour les cartes adjacentes.


METAR-TAF: